Time;durP1;ratioP1;P1;durP2;ratioP2;P2;SDS_P1;SDS_P2;PMS_P1;PMS_P2;Temp;Humidity;BMP_temperature;BMP_pressure;BME280_temperature;BME280_humidity;BME280_pressure;Samples;Min_cycle;Max_cycle;Signal;HPM_P1;HPM_P2
2021/12/06 00:01:22;;;;;;;26.88;16.20;;;2.20;99.90;;;;;;5108685;28;20199;-83
2021/12/06 00:03:56;;;;;;;27.77;17.20;;;2.20;99.90;;;;;;5125665;27;20049;-83
2021/12/06 00:06:25;;;;;;;27.67;17.50;;;2.10;99.90;;;;;;5107854;27;20070;-83
2021/12/06 00:08:51;;;;;;;25.85;15.70;;;2.10;99.90;;;;;;5107564;28;20047;-84
2021/12/06 00:11:17;;;;;;;23.25;13.85;;;2.10;99.90;;;;;;5127690;27;20050;-85
2021/12/06 00:13:45;;;;;;;25.85;16.55;;;2.20;99.90;;;;;;5124374;28;20035;-85
2021/12/06 00:16:17;;;;;;;27.63;17.15;;;2.10;99.90;;;;;;5105443;28;20046;-84
2021/12/06 00:18:44;;;;;;;26.33;16.50;;;2.10;99.90;;;;;;5106971;28;20047;-85
2021/12/06 00:21:10;;;;;;;29.63;17.80;;;2.10;99.90;;;;;;5106281;28;20035;-85
2021/12/06 00:23:37;;;;;;;28.50;17.58;;;2.20;99.90;;;;;;5107172;28;20043;-84
2021/12/06 00:26:04;;;;;;;27.85;17.50;;;2.10;99.90;;;;;;5090844;28;20130;-85
2021/12/06 00:28:30;;;;;;;24.95;14.60;;;2.20;99.90;;;;;;5091230;28;20377;-84
2021/12/06 00:30:56;;;;;;;24.10;14.73;;;2.20;99.90;;;;;;5125314;27;20030;-84
2021/12/06 00:33:24;;;;;;;31.05;18.38;;;2.20;99.90;;;;;;5107245;28;20049;-85
2021/12/06 00:35:50;;;;;;;27.95;16.63;;;2.20;99.90;;;;;;5124418;28;20405;-85
2021/12/06 00:38:16;;;;;;;26.40;16.75;;;2.20;99.90;;;;;;5106000;28;20061;-85
2021/12/06 00:40:46;;;;;;;27.55;16.90;;;2.20;99.90;;;;;;5124633;28;20351;-84
2021/12/06 00:43:13;;;;;;;25.85;15.63;;;2.10;99.90;;;;;;5127484;27;20043;-85
2021/12/06 00:45:39;;;;;;;;;;;2.20;99.90;;;;;;5128302;27;20031;-84
2021/12/06 00:48:05;;;;;;;28.38;17.77;;;2.20;99.90;;;;;;5128678;27;20103;-84
2021/12/06 00:50:34;;;;;;;24.50;14.23;;;2.20;99.90;;;;;;5128600;27;20074;-84
2021/12/06 00:53:00;;;;;;;26.60;16.90;;;2.20;99.90;;;;;;5128289;27;20122;-85
2021/12/06 00:55:26;;;;;;;27.70;17.15;;;2.20;99.90;;;;;;5111889;27;20091;-85
2021/12/06 00:57:53;;;;;;;29.38;17.73;;;2.20;99.90;;;;;;5110506;27;20043;-84
2021/12/06 01:00:24;;;;;;;24.90;15.02;;;2.20;99.90;;;;;;5128472;27;20050;-85
2021/12/06 01:02:50;;;;;;;28.80;16.42;;;2.20;99.90;;;;;;5110177;27;20577;-84
2021/12/06 01:05:16;;;;;;;26.42;16.27;;;2.20;99.90;;;;;;5128196;27;20138;-85
2021/12/06 01:07:43;;;;;;;29.27;17.48;;;2.20;99.90;;;;;;5110450;27;20129;-84
2021/12/06 01:10:10;;;;;;;26.48;17.17;;;2.20;99.90;;;;;;5110610;27;20046;-84
2021/12/06 01:12:36;;;;;;;28.55;17.77;;;2.20;99.90;;;;;;5127732;27;20176;-84
2021/12/06 01:15:03;;;;;;;;;;;2.20;99.90;;;;;;5109174;27;20114;-84
2021/12/06 01:17:29;;;;;;;28.73;17.60;;;2.20;99.90;;;;;;5111619;27;19934;-84
2021/12/06 01:19:54;;;;;;;27.17;16.92;;;2.20;99.90;;;;;;5083238;27;20054;-84
2021/12/06 01:22:26;;;;;;;28.77;18.10;;;2.20;99.90;;;;;;5128058;27;20038;-84
2021/12/06 01:25:04;;;;;;;30.52;18.77;;;2.20;99.90;;;;;;5110221;27;20038;-84
2021/12/06 01:40:39;;;;;;;27.80;17.58;;;2.10;99.90;;;;;;5112847;27;20508;-83
2021/12/06 01:43:06;;;;;;;27.48;16.95;;;2.10;99.90;;;;;;5110686;27;20043;-83
2021/12/06 01:45:31;;;;;;;28.77;18.08;;;2.20;99.90;;;;;;5128139;27;20438;-83
2021/12/06 01:47:57;;;;;;;29.70;17.13;;;2.10;99.90;;;;;;5110495;27;20153;-83
2021/12/06 01:50:28;;;;;;;30.85;18.25;;;2.10;99.90;;;;;;5085618;27;20141;-83
2021/12/06 01:52:57;;;;;;;32.80;19.65;;;2.10;99.90;;;;;;5125058;27;20126;-84
2021/12/06 01:55:30;;;;;;;33.80;18.83;;;2.10;99.90;;;;;;5109305;27;20074;-83
2021/12/06 01:58:00;;;;;;;31.73;18.55;;;2.10;99.90;;;;;;5127450;27;20095;-84
2021/12/06 02:00:37;;;;;;;32.25;18.75;;;2.10;99.90;;;;;;5109010;27;20066;-84
2021/12/06 02:03:04;;;;;;;30.55;17.95;;;2.10;99.90;;;;;;5124686;27;20035;-84
2021/12/06 02:05:31;;;;;;;35.80;19.80;;;2.10;99.90;;;;;;5126736;27;20041;-85
2021/12/06 02:07:58;;;;;;;36.90;19.80;;;2.10;99.90;;;;;;5093245;27;20039;-84
2021/12/06 02:10:24;;;;;;;31.83;19.08;;;2.10;99.90;;;;;;5082767;27;20074;-83
2021/12/06 02:12:52;;;;;;;33.90;19.38;;;2.10;99.90;;;;;;5081975;27;20123;-84
2021/12/06 02:18:14;;;;;;;36.28;19.83;;;2.10;99.90;;;;;;5126428;27;20132;-83
2021/12/06 02:20:47;;;;;;;36.38;18.88;;;2.10;99.90;;;;;;5109593;27;20107;-84
2021/12/06 02:23:13;;;;;;;35.28;19.58;;;2.10;99.90;;;;;;5108644;27;20186;-84
2021/12/06 02:25:39;;;;;;;38.20;20.50;;;2.10;99.90;;;;;;5085595;27;20039;-85
2021/12/06 02:28:05;;;;;;;39.45;20.65;;;2.10;99.90;;;;;;5109158;27;20122;-83
2021/12/06 02:30:31;;;;;;;36.33;19.42;;;2.10;99.90;;;;;;5108530;27;20438;-83
2021/12/06 02:32:57;;;;;;;38.20;20.77;;;2.10;99.90;;;;;;5109346;27;20030;-84
2021/12/06 02:35:24;;;;;;;36.33;19.73;;;2.10;99.90;;;;;;5126655;27;20042;-83
2021/12/06 02:37:51;;;;;;;39.97;21.55;;;2.10;99.90;;;;;;5126181;27;20085;-84
2021/12/06 02:40:24;;;;;;;41.03;21.90;;;2.10;99.90;;;;;;5126013;27;20375;-83
2021/12/06 02:42:51;;;;;;;37.15;19.98;;;2.10;99.90;;;;;;5126184;27;20398;-84
2021/12/06 02:45:19;;;;;;;36.28;19.90;;;2.10;99.90;;;;;;5108426;27;20431;-83
2021/12/06 02:47:52;;;;;;;34.17;19.08;;;2.10;99.90;;;;;;5107775;27;20058;-83
2021/12/06 02:50:21;;;;;;;33.40;18.88;;;2.10;99.90;;;;;;5107616;27;20455;-83
2021/12/06 02:52:47;;;;;;;30.88;16.55;;;2.10;99.90;;;;;;5108736;27;20414;-83
2021/12/06 02:55:36;;;;;;;35.80;20.20;;;2.10;99.90;;;;;;5087219;27;20129;-83
2021/12/06 02:58:32;;;;;;;38.20;21.20;;;2.10;99.90;;;;;;5125612;27;20138;-83
2021/12/06 03:00:59;;;;;;;38.58;19.67;;;2.10;99.90;;;;;;5106336;27;20075;-84
2021/12/06 03:03:25;;;;;;;36.33;20.55;;;2.10;99.90;;;;;;5106811;27;20049;-83
2021/12/06 03:05:52;;;;;;;35.22;19.20;;;2.10;99.90;;;;;;5079163;27;20035;-83
2021/12/06 03:08:36;;;;;;;39.55;22.75;;;2.10;99.90;;;;;;5125127;27;20122;-83
2021/12/06 03:11:05;;;;;;;38.03;20.77;;;2.10;99.90;;;;;;5108001;27;20031;-83
2021/12/06 03:13:31;;;;;;;31.58;17.05;;;2.10;99.90;;;;;;5107182;27;20073;-84
2021/12/06 03:15:56;;;;;;;35.13;19.92;;;2.20;99.90;;;;;;5126149;27;20071;-83
2021/12/06 03:18:22;;;;;;;35.72;19.63;;;2.10;99.90;;;;;;5125258;27;20060;-84
2021/12/06 03:20:48;;;;;;;40.25;22.38;;;2.10;99.90;;;;;;5108626;27;20051;-83
2021/12/06 03:23:14;;;;;;;36.60;19.38;;;2.10;99.90;;;;;;5108643;27;20378;-84
2021/12/06 03:25:39;;;;;;;33.83;18.80;;;2.20;99.90;;;;;;5090989;27;20039;-83
2021/12/06 03:28:05;;;;;;;38.10;21.03;;;2.20;99.90;;;;;;5106550;27;20047;-84
2021/12/06 03:30:31;;;;;;;35.50;19.73;;;2.20;99.90;;;;;;5107324;27;20688;-83
2021/12/06 03:32:57;;;;;;;29.95;17.40;;;2.20;99.90;;;;;;5108961;27;20280;-83
2021/12/06 03:35:22;;;;;;;31.50;17.50;;;2.10;99.90;;;;;;5080928;27;20074;-83
2021/12/06 03:37:48;;;;;;;29.15;16.83;;;2.20;99.90;;;;;;5088124;27;20095;-83
2021/12/06 03:40:14;;;;;;;28.70;16.02;;;2.10;99.90;;;;;;5090882;27;20083;-83
2021/12/06 03:42:40;;;;;;;27.35;15.05;;;2.20;99.90;;;;;;5125602;27;20496;-84
2021/12/06 03:45:08;;;;;;;28.92;15.70;;;2.20;99.90;;;;;;5088810;27;20043;-84
2021/12/06 03:47:34;;;;;;;23.10;13.45;;;2.20;99.90;;;;;;5107622;27;21487;-83
2021/12/06 03:50:01;;;;;;;26.15;14.95;;;2.20;99.90;;;;;;5123480;27;20043;-84
2021/12/06 03:52:27;;;;;;;24.52;13.85;;;2.20;99.90;;;;;;5091162;27;20047;-84
2021/12/06 03:54:54;;;;;;;22.35;12.48;;;2.20;99.90;;;;;;5089210;27;20126;-84
2021/12/06 03:57:20;;;;;;;26.90;15.93;;;2.20;99.90;;;;;;5107740;28;20122;-84
2021/12/06 03:59:47;;;;;;;;;;;2.20;99.90;;;;;;5107931;27;20111;-84
2021/12/06 04:02:13;;;;;;;33.75;18.88;;;2.20;99.90;;;;;;5107439;27;19922;-84
2021/12/06 04:04:39;;;;;;;30.13;17.02;;;2.20;99.90;;;;;;5124357;27;20445;-83
2021/12/06 04:07:05;;;;;;;32.95;18.55;;;2.20;99.90;;;;;;5107920;28;20039;-84
2021/12/06 04:09:31;;;;;;;26.77;15.13;;;2.20;99.90;;;;;;5106856;28;20506;-83
2021/12/06 04:11:57;;;;;;;27.92;16.20;;;2.20;99.90;;;;;;5107713;28;20043;-83
2021/12/06 04:14:22;;;;;;;28.45;15.07;;;2.20;99.90;;;;;;5108799;28;20069;-83
2021/12/06 04:16:48;;;;;;;26.42;14.88;;;2.20;99.90;;;;;;5108318;27;20035;-84
2021/12/06 04:19:14;;;;;;;22.67;13.50;;;2.20;99.90;;;;;;5084786;27;20587;-84
2021/12/06 04:21:41;;;;;;;;;;;2.30;99.90;;;;;;5094998;27;20038;-83
2021/12/06 04:24:09;;;;;;;24.85;14.05;;;2.30;99.90;;;;;;5095041;27;20268;-84
2021/12/06 04:26:34;;;;;;;37.03;19.63;;;2.30;99.90;;;;;;5127289;27;20039;-84
2021/12/06 04:29:01;;;;;;;34.53;18.95;;;2.30;99.90;;;;;;5111269;27;20035;-84
2021/12/06 04:31:30;;;;;;;33.13;18.55;;;2.20;99.90;;;;;;5094815;27;20531;-84
2021/12/06 04:33:57;;;;;;;32.80;18.02;;;2.30;99.90;;;;;;5102783;27;20050;-84
2021/12/06 04:36:22;;;;;;;39.80;21.52;;;2.30;99.90;;;;;;5110875;27;20042;-84
2021/12/06 04:38:49;;;;;;;36.35;20.05;;;2.30;99.90;;;;;;5108954;27;20505;-84
2021/12/06 04:41:15;;;;;;;34.35;17.88;;;2.20;99.90;;;;;;5128244;27;20062;-84
2021/12/06 04:43:40;;;;;;;35.33;17.20;;;2.30;99.90;;;;;;5087066;27;20043;-83
2021/12/06 04:46:06;;;;;;;30.52;16.95;;;2.30;99.90;;;;;;5093446;27;20042;-83
2021/12/06 04:48:32;;;;;;;33.47;17.15;;;2.30;99.90;;;;;;5084072;27;20034;-84
2021/12/06 04:50:58;;;;;;;32.72;18.23;;;2.30;99.90;;;;;;5128197;27;20115;-83
2021/12/06 04:53:27;;;;;;;38.80;20.38;;;2.30;99.90;;;;;;5111212;27;20126;-83
2021/12/06 04:56:10;;;;;;;33.55;17.25;;;2.30;99.90;;;;;;5109536;27;20195;-83
2021/12/06 04:58:45;;;;;;;34.20;17.95;;;2.30;99.90;;;;;;5111452;27;20058;-83
2021/12/06 05:01:17;;;;;;;40.13;20.58;;;2.30;99.90;;;;;;5124857;27;20077;-83
2021/12/06 05:03:43;;;;;;;41.85;21.15;;;2.30;99.90;;;;;;5127255;27;20118;-83
2021/12/06 05:06:22;;;;;;;36.63;19.00;;;2.30;99.90;;;;;;5109257;27;20046;-83
2021/12/06 05:08:51;;;;;;;42.10;21.73;;;2.30;99.90;;;;;;5126931;27;20519;-84
2021/12/06 05:11:20;;;;;;;39.05;20.33;;;2.30;99.90;;;;;;5126140;27;20527;-83
2021/12/06 05:13:47;;;;;;;38.78;20.42;;;2.30;99.90;;;;;;5109183;27;20046;-83
2021/12/06 05:16:13;;;;;;;40.03;19.98;;;2.20;99.90;;;;;;5110411;27;20051;-83
2021/12/06 05:18:39;;;;;;;;;;;2.30;99.90;;;;;;5145064;27;20027;-84
2021/12/06 05:21:05;;;;;;;45.67;22.90;;;2.30;99.90;;;;;;5093083;27;19938;-83
2021/12/06 05:23:32;;;;;;;38.70;19.67;;;2.30;99.90;;;;;;5091257;27;20035;-84
2021/12/06 05:25:57;;;;;;;39.97;20.13;;;2.30;99.90;;;;;;5109129;27;20043;-83
2021/12/06 05:28:27;;;;;;;39.30;19.50;;;2.40;99.90;;;;;;5107408;27;20489;-84
2021/12/06 05:30:55;;;;;;;45.88;23.10;;;2.30;99.90;;;;;;5107462;27;20043;-84
2021/12/06 05:33:29;;;;;;;46.75;22.80;;;2.30;99.90;;;;;;5108218;27;20437;-83
2021/12/06 05:35:58;;;;;;;43.42;22.30;;;2.30;99.90;;;;;;5091441;27;20095;-83
2021/12/06 05:38:26;;;;;;;46.72;23.60;;;2.40;99.90;;;;;;5124197;27;20035;-84
2021/12/06 05:40:52;;;;;;;52.85;25.45;;;2.30;99.90;;;;;;5141995;27;20061;-84
2021/12/06 05:43:17;;;;;;;46.80;23.25;;;2.30;99.90;;;;;;5108857;27;20039;-84
2021/12/06 05:45:43;;;;;;;52.20;24.45;;;2.30;99.90;;;;;;5075473;27;20486;-84
2021/12/06 05:48:09;;;;;;;38.65;18.85;;;2.30;99.90;;;;;;5076839;27;20046;-84
2021/12/06 05:50:35;;;;;;;49.50;24.23;;;2.30;99.90;;;;;;5075750;27;20118;-84
2021/12/06 05:53:01;;;;;;;37.00;18.52;;;2.40;99.90;;;;;;5108429;27;20039;-84
2021/12/06 05:55:28;;;;;;;44.42;22.80;;;2.30;99.90;;;;;;5091492;27;20043;-84
2021/12/06 05:57:56;;;;;;;45.05;22.00;;;2.40;99.90;;;;;;5109833;27;20035;-84
2021/12/06 06:00:24;;;;;;;46.17;23.33;;;2.40;99.90;;;;;;5143259;27;20050;-84
2021/12/06 06:02:50;;;;;;;50.78;25.15;;;2.40;99.90;;;;;;5126622;27;20050;-84
2021/12/06 06:05:18;;;;;;;47.40;24.48;;;2.40;99.90;;;;;;5110112;27;20032;-84
2021/12/06 06:07:44;;;;;;;50.45;23.70;;;2.30;99.90;;;;;;5125970;27;20039;-83
2021/12/06 06:10:11;;;;;;;50.45;23.83;;;2.30;99.90;;;;;;5109434;27;20096;-84
2021/12/06 06:12:37;;;;;;;53.20;25.23;;;2.30;99.90;;;;;;5123546;27;20035;-84
2021/12/06 06:15:03;;;;;;;55.13;25.92;;;2.40;99.90;;;;;;5108417;27;20508;-84
2021/12/06 06:17:38;;;;;;;49.00;23.38;;;2.30;99.90;;;;;;5124290;27;20523;-83
2021/12/06 06:20:07;;;;;;;54.28;24.63;;;2.30;99.90;;;;;;5106631;27;20498;-83
2021/12/06 06:22:33;;;;;;;49.05;23.63;;;2.30;99.90;;;;;;5107127;27;20043;-83
2021/12/06 06:24:58;;;;;;;46.73;23.33;;;2.30;99.90;;;;;;5108726;27;20096;-84
2021/12/06 06:27:24;;;;;;;46.00;22.58;;;2.30;99.90;;;;;;5091165;27;20288;-84
2021/12/06 06:29:50;;;;;;;46.63;22.65;;;2.30;99.90;;;;;;5088603;27;20046;-85
2021/12/06 06:32:16;;;;;;;45.53;21.00;;;2.30;99.90;;;;;;5090417;27;20057;-84
2021/12/06 06:34:41;;;;;;;44.13;19.58;;;2.30;99.90;;;;;;5126017;27;20042;-83
2021/12/06 06:37:07;;;;;;;54.65;22.60;;;2.30;99.90;;;;;;5090340;27;20496;-85
2021/12/06 06:39:33;;;;;;;48.33;21.77;;;2.20;99.90;;;;;;5093051;27;20094;-86
2021/12/06 06:41:59;;;;;;;44.95;21.25;;;2.30;99.90;;;;;;5109919;27;20101;-84
2021/12/06 06:44:24;;;;;;;41.08;19.10;;;2.20;99.90;;;;;;5110602;27;20046;-83
2021/12/06 06:46:51;;;;;;;50.33;23.13;;;2.30;99.90;;;;;;5088416;27;20049;-82
2021/12/06 06:49:17;;;;;;;48.83;22.42;;;2.20;99.90;;;;;;5128573;27;20058;-82
2021/12/06 06:51:46;;;;;;;49.58;21.58;;;2.30;99.90;;;;;;5086690;27;20398;-82
2021/12/06 06:54:12;;;;;;;41.00;19.90;;;2.30;99.90;;;;;;5127648;27;20043;-82
2021/12/06 06:56:38;;;;;;;49.08;22.35;;;2.30;99.90;;;;;;5110411;27;20065;-82
2021/12/06 06:59:04;;;;;;;49.08;21.42;;;2.30;99.90;;;;;;5110246;27;20088;-82
2021/12/06 07:01:30;;;;;;;51.08;23.35;;;2.40;99.90;;;;;;5126971;27;20518;-80
2021/12/06 07:03:56;;;;;;;43.15;20.30;;;2.30;99.90;;;;;;5110246;27;20087;-81
2021/12/06 07:06:24;;;;;;;47.88;22.55;;;2.30;99.90;;;;;;5076430;27;20434;-81
2021/12/06 07:08:56;;;;;;;43.15;21.02;;;2.30;99.90;;;;;;5110902;27;21051;-82
2021/12/06 07:11:23;;;;;;;45.75;20.95;;;2.30;99.90;;;;;;5128804;27;20046;-82
2021/12/06 07:13:49;;;;;;;48.58;22.30;;;2.30;99.90;;;;;;5128479;27;20039;-83
2021/12/06 07:16:31;;;;;;;49.13;23.08;;;2.30;99.90;;;;;;5104741;27;20047;-83
2021/12/06 07:19:00;;;;;;;42.20;19.15;;;2.30;99.90;;;;;;5093009;27;20138;-83
2021/12/06 07:21:25;;;;;;;43.40;20.58;;;2.40;99.90;;;;;;5090199;27;20102;-83
2021/12/06 07:23:51;;;;;;;42.03;20.85;;;2.30;99.90;;;;;;5096549;27;20051;-83
2021/12/06 07:26:20;;;;;;;41.90;19.88;;;2.20;99.90;;;;;;5129075;27;20835;-83
2021/12/06 07:28:48;;;;;;;42.35;19.88;;;2.20;99.90;;;;;;5123612;27;20501;-82
2021/12/06 07:31:14;;;;;;;39.03;18.48;;;2.30;99.90;;;;;;5108720;27;20443;-81
2021/12/06 07:33:43;;;;;;;43.72;20.77;;;2.30;99.90;;;;;;5126769;27;20039;-83
2021/12/06 07:36:09;;;;;;;42.15;19.92;;;2.20;99.90;;;;;;5126179;27;20031;-83
2021/12/06 07:38:37;;;;;;;46.30;20.50;;;2.30;99.90;;;;;;5128653;27;20039;-83
2021/12/06 07:41:06;;;;;;;39.85;19.13;;;2.20;99.90;;;;;;5086224;27;20047;-83
2021/12/06 07:43:35;;;;;;;45.67;21.17;;;2.20;99.90;;;;;;5126602;27;20053;-82
2021/12/06 07:46:02;;;;;;;39.25;18.50;;;2.20;99.90;;;;;;5125698;27;20035;-86
2021/12/06 07:48:27;;;;;;;;;;;2.30;99.90;;;;;;5109068;27;20099;-84
2021/12/06 07:50:53;;;;;;;44.13;19.27;;;2.30;99.90;;;;;;5108506;27;19923;-83
2021/12/06 07:53:19;;;;;;;42.67;19.38;;;2.30;99.90;;;;;;5109726;27;20051;-83
2021/12/06 07:55:45;;;;;;;41.50;19.85;;;2.30;99.90;;;;;;5091954;27;20539;-84
2021/12/06 07:58:11;;;;;;;40.65;19.48;;;2.30;99.90;;;;;;5110638;27;20047;-83
2021/12/06 08:00:44;;;;;;;39.63;19.42;;;2.30;99.90;;;;;;5112782;27;20046;-83
2021/12/06 08:03:10;;;;;;;41.58;19.90;;;2.30;99.90;;;;;;5109651;27;20050;-85
2021/12/06 08:05:37;;;;;;;;;;;2.30;99.90;;;;;;5110910;28;20726;-85
2021/12/06 08:08:23;;;;;;;41.55;19.42;;;2.40;99.90;;;;;;5128385;27;19915;-84
2021/12/06 08:10:54;;;;;;;45.60;20.30;;;2.30;99.90;;;;;;5130435;27;20114;-84
2021/12/06 08:13:24;;;;;;;43.22;18.92;;;2.30;99.90;;;;;;5123964;28;20032;-84
2021/12/06 08:15:54;;;;;;;40.22;19.23;;;2.30;99.90;;;;;;5108271;28;20047;-84
2021/12/06 08:18:22;;;;;;;48.67;21.25;;;2.30;99.90;;;;;;5109779;28;20047;-82
2021/12/06 08:20:49;;;;;;;44.20;20.90;;;2.30;99.90;;;;;;5110650;28;20046;-82
2021/12/06 08:23:15;;;;;;;45.95;21.23;;;2.40;99.90;;;;;;5126979;27;20062;-82
2021/12/06 08:25:42;;;;;;;45.95;21.52;;;2.40;99.90;;;;;;5126299;28;20027;-83
2021/12/06 08:28:07;;;;;;;50.28;22.90;;;2.40;99.90;;;;;;5109064;28;20047;-83
2021/12/06 08:30:34;;;;;;;48.72;20.98;;;2.30;99.90;;;;;;5108972;28;20039;-85
2021/12/06 08:33:04;;;;;;;46.40;20.65;;;2.40;99.90;;;;;;5109303;28;20042;-83
2021/12/06 08:35:31;;;;;;;49.70;22.38;;;2.40;99.90;;;;;;5110711;28;20031;-83
2021/12/06 08:37:58;;;;;;;47.03;20.13;;;2.40;99.90;;;;;;5109260;28;20043;-85
2021/12/06 08:40:26;;;;;;;43.55;20.17;;;2.40;99.90;;;;;;5128408;28;20482;-86
2021/12/06 08:42:52;;;;;;;49.85;20.88;;;2.40;99.90;;;;;;5128062;28;20093;-82
2021/12/06 08:45:18;;;;;;;51.72;22.67;;;2.40;99.90;;;;;;5096830;27;20538;-76
2021/12/06 08:47:44;;;;;;;44.17;19.90;;;2.40;99.90;;;;;;5126443;27;20172;-72
2021/12/06 08:50:17;;;;;;;46.28;20.67;;;2.50;99.90;;;;;;5097151;28;20059;-83
2021/12/06 08:52:43;;;;;;;50.90;22.52;;;2.50;99.90;;;;;;5108412;27;20393;-83
2021/12/06 08:55:11;;;;;;;49.08;20.73;;;2.50;99.90;;;;;;5096415;28;20042;-83
2021/12/06 08:57:37;;;;;;;48.15;21.05;;;2.50;99.90;;;;;;5111098;27;20553;-83
2021/12/06 09:00:16;;;;;;;48.08;21.80;;;2.50;99.90;;;;;;5092717;28;20085;-83
2021/12/06 09:02:42;;;;;;;43.53;20.35;;;2.50;99.90;;;;;;5087314;27;20602;-83
2021/12/06 09:05:09;;;;;;;50.67;21.25;;;2.60;99.90;;;;;;5075537;27;20035;-83
2021/12/06 09:07:35;;;;;;;;;;;2.60;99.90;;;;;;5092805;27;20096;-82
2021/12/06 09:10:01;;;;;;;50.55;21.83;;;2.60;99.90;;;;;;5111768;27;19915;-82
2021/12/06 09:12:28;;;;;;;51.58;22.70;;;2.60;99.90;;;;;;5094612;27;20035;-82
2021/12/06 09:14:57;;;;;;;43.72;20.67;;;2.70;99.90;;;;;;5074068;27;20043;-82
2021/12/06 09:17:23;;;;;;;41.00;19.20;;;2.70;99.90;;;;;;5099767;27;20450;-82
2021/12/06 09:19:50;;;;;;;48.63;21.23;;;2.70;99.90;;;;;;5091720;27;20039;-82
2021/12/06 09:22:16;;;;;;;;;;;2.70;99.90;;;;;;5072184;27;20046;-82
2021/12/06 09:24:42;;;;;;;49.63;21.67;;;2.80;99.90;;;;;;5089738;27;19930;-82
2021/12/06 09:27:08;;;;;;;47.88;20.80;;;2.80;99.90;;;;;;5072784;27;20581;-82
2021/12/06 09:29:38;;;;;;;43.33;20.40;;;2.80;99.90;;;;;;5092341;27;20162;-82
2021/12/06 09:32:08;;;;;;;43.53;19.08;;;2.80;99.90;;;;;;5092989;27;20031;-83
2021/12/06 09:34:38;;;;;;;41.95;20.30;;;2.80;99.90;;;;;;5086656;27;20667;-82
2021/12/06 09:37:04;;;;;;;40.10;19.08;;;2.90;99.90;;;;;;5101891;27;20447;-82
2021/12/06 09:39:31;;;;;;;36.15;18.55;;;2.90;99.90;;;;;;5085886;27;20151;-81
2021/12/06 09:42:00;;;;;;;38.58;18.48;;;3.00;99.90;;;;;;5093724;27;20584;-82
2021/12/06 09:44:27;;;;;;;33.67;17.10;;;3.10;99.90;;;;;;5092173;27;20054;-82
2021/12/06 09:46:52;;;;;;;;;;;3.10;99.90;;;;;;5111338;27;20027;-81
2021/12/06 09:49:20;;;;;;;32.85;16.17;;;3.00;99.90;;;;;;5091263;27;20004;-82
2021/12/06 09:51:52;;;;;;;37.38;17.58;;;3.00;99.90;;;;;;5085971;27;20059;-83
2021/12/06 09:54:25;;;;;;;36.30;17.85;;;3.10;99.90;;;;;;5087973;27;20141;-83
2021/12/06 09:56:52;;;;;;;33.42;16.52;;;3.10;99.90;;;;;;5108047;27;20111;-83
2021/12/06 09:59:21;;;;;;;34.85;16.83;;;3.00;99.90;;;;;;5101794;27;20721;-82
2021/12/06 10:02:10;;;;;;;34.03;17.38;;;3.10;99.90;;;;;;5124583;27;20047;-83
2021/12/06 10:04:39;;;;;;;33.67;17.08;;;2.90;99.90;;;;;;5109681;27;20133;-84
2021/12/06 10:07:09;;;;;;;34.05;16.63;;;2.90;99.90;;;;;;5127782;27;20027;-83
2021/12/06 10:09:36;;;;;;;32.90;15.70;;;2.90;99.90;;;;;;5111381;27;20046;-83
2021/12/06 10:12:03;;;;;;;32.17;16.42;;;2.90;99.90;;;;;;5111521;27;20039;-79
2021/12/06 10:14:30;;;;;;;31.63;16.42;;;2.80;99.90;;;;;;5129099;27;20450;-85
2021/12/06 10:16:56;;;;;;;33.63;16.58;;;2.80;99.90;;;;;;5129983;27;20027;-82
2021/12/06 10:19:25;;;;;;;32.40;16.42;;;2.80;99.90;;;;;;5112614;27;20035;-84
2021/12/06 10:21:52;;;;;;;32.22;17.08;;;2.70;99.90;;;;;;5129709;27;20047;-84
2021/12/06 10:24:22;;;;;;;30.10;16.33;;;2.80;99.90;;;;;;5129198;27;20114;-84
2021/12/06 10:26:48;;;;;;;31.67;16.73;;;2.80;99.90;;;;;;5129488;27;20035;-83
2021/12/06 10:29:20;;;;;;;;;;;2.80;99.90;;;;;;5112541;27;20126;-84
2021/12/06 10:31:48;;;;;;;33.22;16.05;;;2.80;99.90;;;;;;5112149;27;19938;-83
2021/12/06 10:34:17;;;;;;;31.65;16.13;;;2.80;99.90;;;;;;5111563;27;20474;-84
2021/12/06 10:36:43;;;;;;;35.08;16.27;;;2.80;99.90;;;;;;5110823;27;20076;-83
2021/12/06 10:39:10;;;;;;;30.05;15.15;;;2.80;99.90;;;;;;5109197;27;20090;-75
2021/12/06 10:41:38;;;;;;;29.55;15.38;;;2.80;99.90;;;;;;5128101;27;20059;-83
2021/12/06 10:44:10;;;;;;;31.45;16.10;;;2.90;99.90;;;;;;5108489;27;20741;-83
2021/12/06 10:46:46;;;;;;;33.97;16.65;;;2.80;99.90;;;;;;5111771;27;20039;-84
2021/12/06 10:49:22;;;;;;;34.25;17.00;;;2.80;99.90;;;;;;5111274;27;20031;-83
2021/12/06 10:51:49;;;;;;;30.33;15.55;;;2.80;99.90;;;;;;5128383;27;20768;-83
2021/12/06 10:54:30;;;;;;;31.77;16.17;;;2.90;99.90;;;;;;5112197;27;20052;-84
2021/12/06 10:57:02;;;;;;;30.85;16.42;;;2.90;99.90;;;;;;5110791;27;20051;-84
2021/12/06 10:59:31;;;;;;;32.60;16.75;;;2.90;99.90;;;;;;5093272;27;20118;-84
2021/12/06 11:02:08;;;;;;;25.73;14.68;;;2.90;99.90;;;;;;5128642;27;20050;-84
2021/12/06 11:04:34;;;;;;;;;;;2.90;99.90;;;;;;5110926;27;20141;-84
2021/12/06 11:07:06;;;;;;;30.02;16.38;;;2.80;99.90;;;;;;5127253;27;20054;-84
2021/12/06 11:09:35;;;;;;;28.23;15.35;;;2.90;99.90;;;;;;5128644;27;20047;-84
2021/12/06 11:12:03;;;;;;;28.92;14.82;;;2.90;99.90;;;;;;5111879;27;20069;-84
2021/12/06 11:14:38;;;;;;;30.52;16.25;;;2.90;99.90;;;;;;5128035;27;20133;-84
2021/12/06 11:17:11;;;;;;;32.22;16.08;;;2.90;99.90;;;;;;5110506;27;20043;-84
2021/12/06 11:19:37;;;;;;;29.17;14.90;;;2.90;99.90;;;;;;5111047;27;20047;-84
2021/12/06 11:22:05;;;;;;;;;;;2.90;99.90;;;;;;5110828;27;20043;-83
2021/12/06 11:24:51;;;;;;;31.60;16.33;;;2.90;99.90;;;;;;5128262;27;19922;-84
2021/12/06 11:27:22;;;;;;;34.95;18.30;;;2.90;99.90;;;;;;5127317;27;20035;-84
2021/12/06 11:29:52;;;;;;;36.53;18.98;;;2.90;99.90;;;;;;5127546;27;20043;-85
2021/12/06 11:32:30;;;;;;;36.38;18.80;;;2.90;99.90;;;;;;5126274;27;20111;-84
2021/12/06 11:35:06;;;;;;;36.15;18.83;;;2.90;99.90;;;;;;5111275;27;20074;-84
2021/12/06 11:37:35;;;;;;;42.70;21.38;;;2.90;99.90;;;;;;5110821;27;20051;-84
2021/12/06 11:40:06;;;;;;;46.70;22.67;;;2.90;99.90;;;;;;5127714;27;20063;-84
2021/12/06 11:42:45;;;;;;;45.75;23.65;;;2.90;99.90;;;;;;5127696;27;20043;-84
2021/12/06 11:45:11;;;;;;;46.75;24.00;;;2.90;99.90;;;;;;5111481;27;20415;-84
2021/12/06 11:47:37;;;;;;;41.97;21.85;;;2.90;99.90;;;;;;5128716;27;20054;-84
2021/12/06 11:50:04;;;;;;;42.10;21.35;;;2.90;99.90;;;;;;5109018;27;20047;-84
2021/12/06 11:52:34;;;;;;;42.95;22.33;;;3.00;99.90;;;;;;5109756;27;20043;-84
2021/12/06 11:55:06;;;;;;;42.67;21.48;;;3.00;99.90;;;;;;5126365;27;20047;-84
2021/12/06 11:57:38;;;;;;;36.95;18.70;;;3.00;99.90;;;;;;5125885;27;20047;-84
2021/12/06 12:00:19;;;;;;;40.25;19.25;;;3.10;99.90;;;;;;5109202;28;20118;-84
2021/12/06 12:02:59;;;;;;;32.63;17.95;;;3.10;99.90;;;;;;5109494;27;20063;-83
2021/12/06 12:05:28;;;;;;;34.20;17.73;;;3.10;99.90;;;;;;5126543;27;20474;-83
2021/12/06 12:08:12;;;;;;;32.25;16.55;;;3.20;99.90;;;;;;5108144;28;20065;-83
2021/12/06 12:10:42;;;;;;;28.05;15.52;;;3.20;99.90;;;;;;5125726;27;20126;-82
2021/12/06 12:13:10;;;;;;;26.30;14.32;;;3.20;99.90;;;;;;5125614;27;20458;-83
2021/12/06 12:15:37;;;;;;;27.33;14.90;;;3.30;99.90;;;;;;5126142;27;20057;-83
2021/12/06 12:18:03;;;;;;;;;;;3.30;99.90;;;;;;5127784;28;20035;-83
2021/12/06 12:20:30;;;;;;;28.65;13.77;;;3.40;99.90;;;;;;5127352;28;20113;-83
2021/12/06 12:23:04;;;;;;;23.75;13.32;;;3.40;99.90;;;;;;5093752;28;20505;-82
2021/12/06 12:25:36;;;;;;;24.73;13.80;;;3.40;99.90;;;;;;5127027;28;20042;-81
2021/12/06 12:30:37;;;;;;;26.35;13.50;;;3.40;99.90;;;;;;5124858;28;20048;-84
2021/12/06 12:33:07;;;;;;;23.75;14.02;;;3.30;99.90;;;;;;5119958;28;20035;-83
2021/12/06 12:35:36;;;;;;;27.17;14.23;;;3.30;99.90;;;;;;5126817;28;20054;-84
2021/12/06 12:38:02;;;;;;;24.65;13.38;;;3.30;99.90;;;;;;5127094;27;20370;-84
2021/12/06 12:40:43;;;;;;;24.45;13.05;;;3.20;99.90;;;;;;5113886;27;20126;-84
2021/12/06 12:43:16;;;;;;;27.20;14.68;;;3.30;99.90;;;;;;5114408;27;20039;-84
2021/12/06 12:45:49;;;;;;;29.63;14.40;;;3.30;99.90;;;;;;5113462;27;20039;-84
2021/12/06 12:48:20;;;;;;;27.70;14.10;;;3.30;99.90;;;;;;5114517;27;20042;-84
2021/12/06 12:51:07;;;;;;;25.77;13.90;;;3.30;99.90;;;;;;5130518;27;20030;-84
2021/12/06 12:53:53;;;;;;;23.13;12.63;;;3.30;99.90;;;;;;5131485;27;20058;-84
2021/12/06 12:56:25;;;;;;;28.58;14.35;;;3.30;99.90;;;;;;5113445;27;20027;-84
2021/12/06 12:58:51;;;;;;;27.70;14.88;;;3.30;99.90;;;;;;5130768;27;20103;-84
2021/12/06 13:01:20;;;;;;;28.90;15.52;;;3.30;99.90;;;;;;5113612;27;20478;-84
2021/12/06 13:03:58;;;;;;;30.02;15.02;;;3.30;99.90;;;;;;5112610;27;20451;-84
2021/12/06 13:06:34;;;;;;;28.27;13.85;;;3.40;99.90;;;;;;5111326;27;20035;-84